Time;durP1;ratioP1;P1;durP2;ratioP2;P2;SDS_P1;SDS_P2;PMS_P1;PMS_P2;Temp;Humidity;BMP_temperature;BMP_pressure;BME280_temperature;BME280_humidity;BME280_pressure;Samples;Min_cycle;Max_cycle;Signal;HPM_P1;HPM_P2
2021/11/30 00:00:06;;;;;;;13.93;10.23;;;4.20;1.00;;;;;;5051720;28;20436;-56
2021/11/30 00:02:32;;;;;;;14.27;9.90;;;4.20;1.00;;;;;;5061580;28;20445;-55
2021/11/30 00:04:58;;;;;;;15.80;9.83;;;4.30;1.00;;;;;;5063816;28;20437;-57
2021/11/30 00:07:24;;;;;;;13.60;9.93;;;4.30;1.00;;;;;;5050888;28;20445;-59
2021/11/30 00:12:20;;;;;;;11.83;8.50;;;4.20;1.00;;;;;;5057838;28;20198;-56
2021/11/30 00:14:49;;;;;;;14.10;8.73;;;4.20;1.00;;;;;;5053494;28;20449;-57
2021/11/30 00:17:17;;;;;;;10.63;8.20;;;4.30;1.00;;;;;;5056431;28;20499;-58
2021/11/30 00:19:44;;;;;;;12.37;8.60;;;4.20;1.00;;;;;;5051314;28;20448;-56
2021/11/30 00:22:13;;;;;;;12.13;8.37;;;4.30;1.00;;;;;;5051784;28;20808;-57
2021/11/30 00:24:38;;;;;;;12.87;8.97;;;4.30;1.00;;;;;;5049428;28;20701;-58
2021/11/30 00:27:08;;;;;;;10.50;7.43;;;4.30;1.00;;;;;;5048085;28;21062;-57
2021/11/30 00:29:35;;;;;;;11.93;9.10;;;4.30;1.00;;;;;;5056197;28;20212;-58
2021/11/30 00:32:02;;;;;;;12.27;8.90;;;4.20;1.00;;;;;;5049096;28;20456;-57
2021/11/30 00:34:28;;;;;;;9.50;7.93;;;4.40;1.00;;;;;;5045548;28;20448;-58
2021/11/30 00:36:54;;;;;;;12.43;7.93;;;4.40;1.00;;;;;;5051933;28;20465;-58
2021/11/30 00:39:48;;;;;;;10.13;8.33;;;4.40;1.00;;;;;;5050690;28;20226;-56
2021/11/30 00:42:14;;;;;;;9.30;7.77;;;4.40;1.00;;;;;;5049045;28;20454;-57
2021/11/30 00:44:42;;;;;;;13.57;8.30;;;4.40;1.00;;;;;;5061704;28;20522;-57
2021/11/30 00:47:16;;;;;;;12.17;8.57;;;4.40;1.00;;;;;;5054809;28;20439;-57
2021/11/30 00:49:42;;;;;;;9.40;7.30;;;4.50;1.00;;;;;;5052666;28;20457;-56
2021/11/30 00:52:08;;;;;;;10.20;7.73;;;4.40;1.00;;;;;;5051719;28;20917;-57
2021/11/30 00:54:34;;;;;;;11.07;8.03;;;4.40;1.00;;;;;;5048700;28;20479;-57
2021/11/30 00:57:00;;;;;;;11.30;8.47;;;;;;;;;;5047530;28;20219;-56
2021/11/30 00:59:28;;;;;;;12.03;7.10;;;4.50;1.00;;;;;;5051031;28;20186;-56
2021/11/30 01:01:58;;;;;;;11.47;8.90;;;4.30;1.00;;;;;;5049800;28;20878;-60
2021/11/30 01:04:25;;;;;;;12.70;8.40;;;4.50;1.00;;;;;;5049710;28;20519;-58
2021/11/30 01:06:51;;;;;;;10.53;7.63;;;4.50;1.00;;;;;;5062475;28;20952;-60
2021/11/30 01:09:17;;;;;;;11.00;7.87;;;4.50;1.00;;;;;;5050049;28;20454;-57
2021/11/30 01:11:43;;;;;;;12.60;9.23;;;4.60;1.00;;;;;;5048432;28;20724;-56
2021/11/30 01:14:09;;;;;;;13.00;8.57;;;4.50;1.00;;;;;;5050534;28;20535;-56
2021/11/30 01:16:36;;;;;;;13.40;8.87;;;4.50;1.00;;;;;;5060918;28;20246;-57
2021/11/30 01:19:04;;;;;;;10.63;8.37;;;4.50;1.00;;;;;;5046485;28;20446;-56
2021/11/30 01:21:30;;;;;;;16.43;8.73;;;;;;;;;;5053364;28;20468;-58
2021/11/30 01:23:55;;;;;;;13.90;8.53;;;8.60;1.00;;;;;;5051441;28;20456;-58
2021/11/30 01:26:21;;;;;;;13.10;9.13;;;4.50;1.00;;;;;;5050940;28;20476;-56
2021/11/30 01:28:47;;;;;;;10.40;7.70;;;4.40;1.00;;;;;;5054944;28;20248;-56
2021/11/30 01:31:13;;;;;;;9.90;7.93;;;4.30;1.00;;;;;;5054532;28;20197;-56
2021/11/30 01:33:38;;;;;;;12.83;8.33;;;4.50;1.00;;;;;;5052499;28;20701;-55
2021/11/30 01:36:05;;;;;;;12.53;8.87;;;4.40;1.00;;;;;;5049231;28;20237;-57
2021/11/30 01:38:32;;;;;;;10.50;7.87;;;4.40;1.00;;;;;;5052955;28;20221;-54
2021/11/30 01:41:00;;;;;;;11.80;7.77;;;4.30;1.00;;;;;;5055949;28;20432;-58
2021/11/30 01:43:33;;;;;;;11.00;8.20;;;4.40;1.00;;;;;;5056493;28;20489;-55
2021/11/30 01:46:13;;;;;;;11.60;8.77;;;4.40;1.00;;;;;;5045107;28;20484;-54
2021/11/30 01:51:25;;;;;;;11.90;7.87;;;4.40;1.00;;;;;;5051133;28;20444;-55
2021/11/30 01:53:52;;;;;;;10.60;8.10;;;4.40;1.00;;;;;;5054082;28;20462;-57
2021/11/30 01:56:18;;;;;;;9.43;7.47;;;4.30;1.00;;;;;;5053371;28;20464;-56
2021/11/30 01:58:44;;;;;;;11.10;8.10;;;;;;;;;;5064418;28;20459;-56
2021/11/30 02:01:11;;;;;;;10.00;7.27;;;4.30;1.00;;;;;;5056345;28;20438;-56
2021/11/30 02:03:37;;;;;;;10.27;7.47;;;4.30;1.00;;;;;;5049491;28;20464;-57
2021/11/30 02:06:03;;;;;;;10.87;6.70;;;4.30;1.00;;;;;;5049282;28;20538;-56
2021/11/30 02:08:29;;;;;;;10.53;7.33;;;4.30;1.00;;;;;;5050836;28;20534;-55
2021/11/30 02:10:56;;;;;;;10.20;7.93;;;4.30;1.00;;;;;;5046996;28;20466;-55
2021/11/30 02:13:23;;;;;;;7.30;6.23;;;4.30;1.00;;;;;;5049421;28;20731;-57
2021/11/30 02:15:52;;;;;;;8.77;6.33;;;4.30;1.00;;;;;;5053947;28;20475;-56
2021/11/30 02:18:24;;;;;;;9.17;6.77;;;4.30;1.00;;;;;;5054508;28;20661;-55
2021/11/30 02:20:56;;;;;;;11.00;6.90;;;4.40;1.00;;;;;;5049411;28;20452;-55
2021/11/30 02:23:33;;;;;;;10.30;6.40;;;4.30;1.00;;;;;;5058227;28;20478;-56
2021/11/30 02:26:02;;;;;;;10.87;6.40;;;4.20;1.00;;;;;;5051866;28;20507;-55
2021/11/30 02:28:28;;;;;;;8.40;6.27;;;;;;;;;;5048772;28;20443;-57
2021/11/30 02:30:54;;;;;;;9.33;6.30;;;4.30;1.00;;;;;;5052182;28;20442;-57
2021/11/30 02:33:21;;;;;;;8.67;6.00;;;4.30;1.00;;;;;;5051716;28;20444;-58
2021/11/30 02:35:47;;;;;;;8.87;6.30;;;4.20;1.00;;;;;;5053652;28;20492;-56
2021/11/30 02:38:12;;;;;;;7.50;6.70;;;4.20;1.00;;;;;;5055225;28;20467;-56
2021/11/30 02:40:38;;;;;;;7.30;5.43;;;4.10;1.00;;;;;;5048348;28;20672;-55
2021/11/30 02:43:05;;;;;;;7.70;5.30;;;4.10;1.00;;;;;;5048376;28;20186;-56
2021/11/30 02:45:31;;;;;;;7.00;5.03;;;4.10;1.00;;;;;;5047299;28;20258;-56
2021/11/30 02:47:57;;;;;;;7.77;5.10;;;4.10;1.00;;;;;;5052501;28;20444;-56
2021/11/30 02:50:23;;;;;;;7.70;5.83;;;4.20;1.00;;;;;;5057451;28;20834;-55
2021/11/30 02:52:49;;;;;;;7.20;5.70;;;4.20;1.00;;;;;;5049599;28;20515;-55
2021/11/30 02:55:15;;;;;;;8.10;5.90;;;;;;;;;;5047322;28;20485;-56
2021/11/30 02:57:41;;;;;;;7.03;4.80;;;;;;;;;;5050692;28;20212;-56
2021/11/30 03:00:08;;;;;;;9.23;6.30;;;4.00;1.00;;;;;;5057002;28;20528;-58
2021/11/30 03:02:35;;;;;;;8.60;6.20;;;3.90;1.00;;;;;;5055612;28;20458;-57
2021/11/30 03:05:02;;;;;;;7.23;5.37;;;3.90;1.00;;;;;;5053630;28;20433;-56
2021/11/30 03:07:38;;;;;;;10.30;5.70;;;4.00;1.00;;;;;;5053048;28;20466;-56
2021/11/30 03:10:08;;;;;;;7.57;5.77;;;3.90;1.00;;;;;;5055969;28;20500;-55
2021/11/30 03:12:34;;;;;;;7.47;5.20;;;4.00;1.00;;;;;;5035987;28;20452;-55
2021/11/30 03:15:23;;;;;;;9.10;5.70;;;4.00;1.00;;;;;;5046147;28;20446;-56
2021/11/30 03:17:49;;;;;;;8.43;5.40;;;4.00;1.00;;;;;;5058406;28;20583;-55
2021/11/30 03:20:16;;;;;;;8.30;5.63;;;3.90;1.00;;;;;;5055623;28;20446;-55
2021/11/30 03:22:42;;;;;;;7.50;6.00;;;3.80;1.00;;;;;;5046652;28;20449;-58
2021/11/30 03:25:10;;;;;;;7.13;5.60;;;3.80;1.00;;;;;;5051779;28;20572;-56
2021/11/30 03:27:36;;;;;;;8.10;5.60;;;3.90;1.00;;;;;;5049949;28;20547;-56
2021/11/30 03:30:08;;;;;;;6.27;4.50;;;3.90;1.00;;;;;;5052280;28;20984;-56
2021/11/30 03:35:02;;;;;;;7.63;5.43;;;3.80;1.00;;;;;;5055114;28;20966;-56
2021/11/30 03:37:28;;;;;;;7.47;5.37;;;3.80;1.00;;;;;;5063310;28;20861;-56
2021/11/30 03:39:54;;;;;;;7.03;5.43;;;3.80;1.00;;;;;;5053863;28;20443;-55
2021/11/30 03:42:20;;;;;;;6.77;5.00;;;3.80;1.00;;;;;;5052900;28;20953;-55
2021/11/30 03:44:46;;;;;;;7.50;5.10;;;3.80;1.00;;;;;;5053072;28;20450;-55
2021/11/30 03:47:11;;;;;;;6.33;4.80;;;3.80;1.00;;;;;;5054639;28;20186;-57
2021/11/30 03:49:37;;;;;;;7.70;5.50;;;3.70;1.00;;;;;;5053673;28;20717;-55
2021/11/30 03:52:03;;;;;;;7.73;5.20;;;3.80;1.00;;;;;;5054081;28;20194;-55
2021/11/30 03:54:29;;;;;;;5.63;4.60;;;3.80;1.00;;;;;;5063841;28;20213;-57
2021/11/30 03:56:56;;;;;;;6.47;4.60;;;3.90;1.00;;;;;;5042712;28;20581;-55
2021/11/30 03:59:22;;;;;;;6.60;4.30;;;4.00;1.00;;;;;;5044200;28;20247;-55
2021/11/30 04:01:48;;;;;;;6.50;4.60;;;3.90;1.00;;;;;;5053873;28;20960;-55
2021/11/30 04:04:20;;;;;;;5.50;4.40;;;3.90;1.00;;;;;;5051755;28;20933;-56
2021/11/30 04:06:48;;;;;;;5.53;4.67;;;3.90;1.00;;;;;;5054521;28;20899;-55
2021/11/30 04:09:14;;;;;;;5.03;3.90;;;4.10;1.00;;;;;;5050286;28;20454;-56
2021/11/30 04:11:40;;;;;;;4.97;4.03;;;4.10;1.00;;;;;;5054982;28;20510;-57
2021/11/30 04:14:07;;;;;;;5.37;3.97;;;4.00;1.00;;;;;;5058316;28;20454;-56
2021/11/30 04:16:33;;;;;;;6.70;4.10;;;4.20;1.00;;;;;;5050184;28;20473;-56
2021/11/30 04:18:59;;;;;;;6.70;4.00;;;4.20;1.00;;;;;;5060231;28;20984;-55
2021/11/30 04:21:25;;;;;;;4.60;3.80;;;4.20;1.00;;;;;;5052289;28;20434;-56
2021/11/30 04:23:51;;;;;;;4.00;3.47;;;4.20;1.00;;;;;;5053809;28;20552;-56
2021/11/30 04:26:18;;;;;;;5.97;4.33;;;4.10;1.00;;;;;;5051567;28;20492;-57
2021/11/30 04:28:44;;;;;;;5.20;3.90;;;4.10;1.00;;;;;;5058759;28;20270;-55
2021/11/30 04:31:10;;;;;;;4.93;3.97;;;4.10;1.00;;;;;;5055666;28;20449;-57
2021/11/30 04:33:36;;;;;;;5.57;3.80;;;4.20;1.00;;;;;;5048170;28;21149;-56
2021/11/30 04:36:05;;;;;;;4.30;3.80;;;4.20;1.00;;;;;;5051877;28;20531;-56
2021/11/30 04:38:30;;;;;;;5.47;3.77;;;4.20;1.00;;;;;;5048551;28;20187;-57
2021/11/30 04:40:56;;;;;;;6.13;3.60;;;4.20;1.00;;;;;;5054445;28;20874;-55
2021/11/30 04:43:22;;;;;;;3.83;2.93;;;4.30;1.00;;;;;;5047195;28;20194;-55
2021/11/30 04:45:55;;;;;;;5.30;3.90;;;4.40;1.00;;;;;;5051087;28;20230;-56
2021/11/30 04:48:21;;;;;;;6.00;4.30;;;4.50;1.00;;;;;;5056706;28;20481;-57
2021/11/30 04:50:50;;;;;;;5.87;4.07;;;4.60;1.00;;;;;;5056936;28;20755;-55
2021/11/30 04:53:16;;;;;;;5.73;3.90;;;4.70;1.00;;;;;;5056827;28;20833;-55
2021/11/30 04:55:42;;;;;;;6.20;4.37;;;4.70;1.00;;;;;;5055372;28;20537;-56
2021/11/30 04:58:07;;;;;;;5.17;4.30;;;4.70;1.00;;;;;;5054872;28;20226;-56
2021/11/30 05:00:35;;;;;;;5.63;4.87;;;4.80;1.00;;;;;;5064500;28;20648;-56
2021/11/30 05:03:01;;;;;;;4.80;3.80;;;4.80;1.00;;;;;;5067997;28;20205;-55
2021/11/30 05:05:27;;;;;;;5.87;4.87;;;5.30;1.00;;;;;;5062668;28;20477;-56
2021/11/30 05:07:53;;;;;;;6.80;4.63;;;4.90;1.00;;;;;;5061254;28;20476;-56
2021/11/30 05:10:18;;;;;;;5.33;4.20;;;4.90;1.00;;;;;;5062814;28;20649;-57
2021/11/30 05:12:46;;;;;;;5.97;4.60;;;5.00;1.00;;;;;;5058916;28;20187;-56
2021/11/30 05:15:12;;;;;;;6.20;4.67;;;5.00;1.00;;;;;;5064074;28;20191;-57
2021/11/30 05:17:39;;;;;;;7.77;5.53;;;4.90;1.00;;;;;;5054639;28;20503;-57
2021/11/30 05:20:05;;;;;;;7.67;4.83;;;4.90;1.00;;;;;;5059460;28;20447;-58
2021/11/30 05:22:32;;;;;;;7.13;4.80;;;5.00;1.00;;;;;;5052753;28;20453;-56
2021/11/30 05:24:58;;;;;;;6.23;5.60;;;4.90;1.00;;;;;;5053998;28;20477;-57
2021/11/30 05:27:23;;;;;;;7.30;5.23;;;5.00;1.00;;;;;;5063797;28;20454;-58
2021/11/30 05:29:49;;;;;;;7.73;6.07;;;5.00;1.00;;;;;;5057435;28;20870;-57
2021/11/30 05:32:15;;;;;;;9.27;6.13;;;4.80;1.00;;;;;;5063914;28;20646;-57
2021/11/30 05:34:41;;;;;;;9.50;6.50;;;4.70;1.00;;;;;;5062249;28;20449;-57
2021/11/30 05:37:07;;;;;;;8.13;6.37;;;4.60;1.00;;;;;;5061045;28;20466;-58
2021/11/30 05:39:33;;;;;;;7.57;6.03;;;4.60;1.00;;;;;;5058036;28;20792;-58
2021/11/30 05:41:58;;;;;;;10.13;7.00;;;4.60;1.00;;;;;;5052287;28;20199;-58
2021/11/30 05:44:24;;;;;;;8.97;6.30;;;;;;;;;;5048335;28;20444;-58
2021/11/30 05:46:50;;;;;;;7.23;6.50;;;;;;;;;;5052329;28;20218;-57
2021/11/30 05:49:16;;;;;;;9.83;7.07;;;4.70;1.00;;;;;;5057336;28;20434;-58
2021/11/30 05:51:42;;;;;;;8.57;7.20;;;4.70;1.00;;;;;;5050049;28;20485;-57
2021/11/30 05:54:08;;;;;;;8.93;7.60;;;4.80;1.00;;;;;;5050104;28;21010;-57
2021/11/30 05:56:34;;;;;;;9.60;7.20;;;4.80;1.00;;;;;;5051045;28;20754;-56
2021/11/30 05:59:00;;;;;;;9.70;7.03;;;4.80;1.00;;;;;;5050825;28;20297;-57
2021/11/30 06:01:32;;;;;;;9.77;6.57;;;4.80;1.00;;;;;;5054760;28;20871;-57
2021/11/30 06:04:00;;;;;;;8.50;6.30;;;4.80;1.00;;;;;;5055431;28;20438;-57
2021/11/30 06:06:32;;;;;;;9.20;7.23;;;4.90;1.00;;;;;;5056053;28;21016;-58
2021/11/30 06:08:58;;;;;;;13.03;7.57;;;4.90;1.00;;;;;;5064625;28;20495;-57
2021/11/30 06:11:24;;;;;;;9.23;6.17;;;4.90;1.00;;;;;;5052105;28;20484;-57
2021/11/30 06:13:50;;;;;;;8.30;5.53;;;4.90;1.00;;;;;;5054099;28;20468;-62
2021/11/30 06:16:17;;;;;;;7.90;6.27;;;4.90;1.00;;;;;;5065574;28;21010;-59
2021/11/30 06:18:42;;;;;;;6.60;5.47;;;4.80;1.00;;;;;;5061370;28;20202;-58
2021/11/30 06:21:13;;;;;;;7.50;6.40;;;4.90;1.00;;;;;;5064437;28;20840;-58
2021/11/30 06:23:40;;;;;;;9.93;6.50;;;4.90;1.00;;;;;;5062630;28;20233;-59
2021/11/30 06:26:10;;;;;;;8.00;6.50;;;4.90;1.00;;;;;;5056713;28;20470;-57
2021/11/30 06:28:36;;;;;;;7.67;5.80;;;4.90;1.00;;;;;;5065680;28;20945;-57
2021/11/30 06:31:04;;;;;;;8.43;6.37;;;5.00;1.00;;;;;;5049233;28;20492;-57
2021/11/30 06:33:31;;;;;;;5.93;5.30;;;5.00;1.00;;;;;;5061898;28;20518;-57
2021/11/30 06:35:57;;;;;;;8.93;5.60;;;5.10;1.00;;;;;;5055397;28;20448;-58
2021/11/30 06:38:23;;;;;;;6.47;5.27;;;5.00;1.00;;;;;;5054944;28;20493;-57
2021/11/30 06:40:49;;;;;;;7.97;5.80;;;5.00;1.00;;;;;;5053441;28;20443;-57
2021/11/30 06:43:15;;;;;;;8.20;5.50;;;5.10;1.00;;;;;;5054595;28;20208;-59
2021/11/30 06:45:42;;;;;;;5.77;4.20;;;5.20;1.00;;;;;;5067015;28;20476;-58
2021/11/30 06:48:07;;;;;;;6.47;4.50;;;5.20;1.00;;;;;;5058293;28;20183;-57
2021/11/30 06:50:34;;;;;;;8.00;4.80;;;5.10;1.00;;;;;;5053389;28;20472;-58
2021/11/30 06:52:59;;;;;;;4.83;3.90;;;5.30;1.00;;;;;;5058230;28;20673;-57
2021/11/30 06:55:26;;;;;;;5.00;4.10;;;;;;;;;;5051974;28;20439;-57
2021/11/30 06:57:51;;;;;;;6.30;4.90;;;4.90;1.00;;;;;;5059233;28;20684;-57
2021/11/30 07:00:21;;;;;;;4.70;4.10;;;5.00;1.00;;;;;;5056358;28;20438;-58
2021/11/30 07:02:48;;;;;;;6.00;4.30;;;5.00;1.00;;;;;;5053459;28;20301;-57
2021/11/30 07:05:30;;;;;;;5.13;4.13;;;5.00;1.00;;;;;;5061407;28;20463;-57
2021/11/30 07:10:37;;;;;;;5.17;3.20;;;;;;;;;;5059156;28;20460;-58
2021/11/30 07:15:55;;;;;;;5.43;3.53;;;5.10;1.00;;;;;;5053332;28;20561;-58
2021/11/30 07:18:21;;;;;;;5.40;3.43;;;5.20;1.00;;;;;;5058970;28;20619;-57
2021/11/30 07:20:47;;;;;;;4.87;3.80;;;5.20;1.00;;;;;;5055978;28;20973;-59
2021/11/30 07:23:13;;;;;;;3.77;3.03;;;5.10;1.00;;;;;;5053929;28;20532;-59
2021/11/30 07:25:40;;;;;;;4.37;2.93;;;5.20;1.00;;;;;;5055084;28;20216;-56
2021/11/30 07:28:06;;;;;;;3.40;2.97;;;5.10;1.00;;;;;;5053777;28;20453;-58
2021/11/30 07:30:33;;;;;;;3.60;2.30;;;5.20;1.00;;;;;;5060490;28;20447;-58
2021/11/30 07:32:59;;;;;;;4.10;3.50;;;5.40;1.00;;;;;;5056329;28;20483;-57
2021/11/30 07:35:25;;;;;;;2.60;2.40;;;;;;;;;;5051297;28;20489;-57
2021/11/30 07:37:51;;;;;;;4.13;2.57;;;;;;;;;;5054270;28;20468;-57
2021/11/30 07:40:18;;;;;;;2.13;1.97;;;5.30;1.00;;;;;;5064816;28;20464;-57
2021/11/30 07:42:43;;;;;;;2.00;1.90;;;5.40;1.00;;;;;;5058808;28;21110;-58
2021/11/30 07:45:13;;;;;;;2.30;2.10;;;5.40;1.00;;;;;;5052492;28;20474;-58
2021/11/30 07:47:40;;;;;;;2.77;2.20;;;5.50;1.00;;;;;;5054749;28;20300;-57
2021/11/30 07:50:07;;;;;;;2.73;2.03;;;5.50;1.00;;;;;;5054444;28;20452;-57
2021/11/30 07:52:40;;;;;;;2.77;2.47;;;5.40;1.00;;;;;;5063358;28;20453;-59
2021/11/30 07:55:08;;;;;;;1.93;1.83;;;5.50;1.00;;;;;;5050727;28;20441;-57
2021/11/30 07:57:34;;;;;;;1.73;1.60;;;5.50;1.00;;;;;;5052587;28;20488;-57
2021/11/30 08:00:00;;;;;;;2.00;1.73;;;5.30;1.00;;;;;;5052160;28;20508;-57
2021/11/30 08:02:25;;;;;;;2.20;2.00;;;5.40;1.00;;;;;;5052738;28;20446;-58
2021/11/30 08:04:52;;;;;;;2.00;1.80;;;;;;;;;;5055471;28;20473;-56
2021/11/30 08:07:18;;;;;;;2.37;1.80;;;5.50;1.00;;;;;;5056834;28;20232;-56
2021/11/30 08:09:47;;;;;;;2.93;1.77;;;5.40;1.00;;;;;;5061610;28;20482;-57
2021/11/30 08:12:13;;;;;;;1.70;1.60;;;5.50;1.00;;;;;;5069201;28;20467;-59
2021/11/30 08:14:39;;;;;;;2.00;1.90;;;;;;;;;;5067584;28;20448;-57
2021/11/30 08:17:10;;;;;;;1.80;1.70;;;5.40;1.00;;;;;;5068217;28;20313;-58
2021/11/30 08:19:35;;;;;;;2.33;1.50;;;5.50;1.00;;;;;;5066321;28;20980;-57
2021/11/30 08:22:01;;;;;;;2.13;1.90;;;5.40;1.00;;;;;;5062538;28;20451;-58
2021/11/30 08:24:27;;;;;;;2.00;1.90;;;5.50;1.00;;;;;;5050921;28;20228;-58
2021/11/30 08:26:53;;;;;;;1.30;1.03;;;5.40;1.00;;;;;;5060681;28;20454;-58
2021/11/30 08:29:18;;;;;;;1.50;1.40;;;5.30;1.00;;;;;;5051674;28;20194;-56
2021/11/30 08:31:44;;;;;;;1.80;1.63;;;5.30;1.00;;;;;;5059692;28;20199;-60
2021/11/30 08:34:10;;;;;;;1.13;1.00;;;5.20;1.00;;;;;;5051258;28;20218;-59
2021/11/30 08:36:36;;;;;;;1.90;1.60;;;5.40;1.00;;;;;;5051361;28;20208;-60
2021/11/30 08:39:02;;;;;;;1.60;1.10;;;5.60;1.00;;;;;;5062502;28;20270;-57
2021/11/30 08:41:28;;;;;;;1.30;1.20;;;5.40;1.00;;;;;;5071242;28;20183;-56
2021/11/30 08:43:53;;;;;;;1.20;1.07;;;5.40;1.00;;;;;;5070771;28;20470;-57
2021/11/30 08:46:19;;;;;;;1.13;1.00;;;5.30;1.00;;;;;;5056977;28;20234;-57
2021/11/30 08:48:45;;;;;;;4.47;1.27;;;;;;;;;;5055280;28;20173;-57
2021/11/30 08:51:11;;;;;;;1.30;1.20;;;5.30;1.00;;;;;;5054919;28;20836;-56
2021/11/30 08:53:36;;;;;;;1.77;1.23;;;5.20;1.00;;;;;;5054738;28;20430;-56
2021/11/30 08:56:05;;;;;;;1.33;1.10;;;5.30;1.00;;;;;;5051609;28;20181;-57
2021/11/30 08:58:31;;;;;;;0.80;0.80;;;5.40;1.00;;;;;;5050906;28;20614;-58
2021/11/30 09:00:57;;;;;;;2.70;0.87;;;5.40;1.00;;;;;;5057454;28;20532;-58
2021/11/30 09:03:23;;;;;;;1.97;1.20;;;;;;;;;;5054440;28;20572;-57
2021/11/30 09:05:49;;;;;;;1.17;1.07;;;5.30;1.00;;;;;;5052799;28;20522;-59
2021/11/30 09:08:15;;;;;;;1.00;0.90;;;5.20;1.00;;;;;;5067773;28;20498;-62
2021/11/30 09:10:42;;;;;;;0.90;0.83;;;5.00;1.00;;;;;;5066854;28;20480;-57
2021/11/30 09:13:08;;;;;;;1.13;1.07;;;;;;;;;;5050458;28;20931;-58
2021/11/30 09:15:35;;;;;;;2.33;1.00;;;5.00;1.00;;;;;;5054915;28;20438;-58
2021/11/30 09:18:01;;;;;;;1.07;1.00;;;;;;;;;;5070605;28;20464;-56
2021/11/30 09:20:28;;;;;;;0.70;0.70;;;4.90;1.00;;;;;;5070235;28;20806;-59
2021/11/30 09:22:55;;;;;;;1.23;1.13;;;5.00;1.00;;;;;;5064008;28;20597;-56
2021/11/30 09:25:22;;;;;;;1.20;1.13;;;5.20;1.00;;;;;;5057082;28;20505;-57
2021/11/30 09:27:49;;;;;;;1.00;0.90;;;5.20;1.00;;;;;;5070512;28;20445;-56
2021/11/30 09:30:19;;;;;;;1.33;1.23;;;5.20;1.00;;;;;;5061521;28;20462;-58
2021/11/30 09:32:45;;;;;;;1.20;0.80;;;;;;;;;;5045227;28;20947;-57
2021/11/30 09:35:14;;;;;;;1.43;1.33;;;5.20;1.00;;;;;;5051137;28;21000;-59
2021/11/30 09:37:41;;;;;;;1.50;1.00;;;5.20;1.00;;;;;;5050289;28;20512;-58
2021/11/30 09:40:09;;;;;;;0.80;0.80;;;5.20;1.00;;;;;;5055064;28;20485;-58
2021/11/30 09:42:35;;;;;;;1.07;1.03;;;5.20;1.00;;;;;;5050213;28;21609;-58
2021/11/30 09:45:04;;;;;;;1.17;1.07;;;5.20;1.00;;;;;;5063025;28;20511;-57
2021/11/30 09:47:31;;;;;;;1.90;1.00;;;5.10;1.00;;;;;;5061437;28;20440;-58
2021/11/30 09:49:57;;;;;;;5.43;1.40;;;5.20;1.00;;;;;;5051505;28;21018;-57
2021/11/30 09:52:23;;;;;;;1.17;1.07;;;5.00;1.00;;;;;;5053034;28;20528;-57
2021/11/30 09:54:48;;;;;;;1.30;1.20;;;5.00;1.00;;;;;;5061163;28;20540;-57
2021/11/30 09:57:14;;;;;;;1.10;1.00;;;5.10;1.00;;;;;;5052267;28;20212;-58
2021/11/30 09:59:45;;;;;;;1.80;1.70;;;5.20;1.00;;;;;;5051312;28;20191;-57
2021/11/30 10:02:11;;;;;;;1.90;1.40;;;5.30;1.00;;;;;;5051748;28;20187;-57
2021/11/30 10:04:38;;;;;;;0.70;0.70;;;;;;;;;;5051221;28;20447;-59
2021/11/30 10:07:04;;;;;;;0.80;0.80;;;5.50;1.00;;;;;;5051360;28;20796;-57
2021/11/30 10:09:30;;;;;;;0.90;0.77;;;;;;;;;;5055386;28;20451;-57
2021/11/30 10:12:00;;;;;;;0.50;0.50;;;5.50;1.00;;;;;;5063692;28;20920;-58
2021/11/30 10:14:36;;;;;;;1.03;0.93;;;5.50;1.00;;;;;;5055936;28;20446;-57
2021/11/30 10:17:22;;;;;;;1.33;1.23;;;5.50;1.00;;;;;;5062570;28;20533;-57
2021/11/30 10:20:05;;;;;;;0.60;0.60;;;5.40;1.00;;;;;;5060713;28;20472;-57
2021/11/30 10:22:43;;;;;;;0.93;0.80;;;5.50;1.00;;;;;;5054062;28;20843;-58
2021/11/30 10:25:18;;;;;;;2.07;0.90;;;5.50;1.00;;;;;;5062759;28;20551;-58
2021/11/30 10:27:47;;;;;;;0.90;0.70;;;5.40;1.00;;;;;;5067157;28;20442;-56
2021/11/30 10:30:25;;;;;;;1.77;0.90;;;5.40;1.00;;;;;;5058077;28;20445;-58
2021/11/30 10:32:53;;;;;;;1.20;0.90;;;5.40;1.00;;;;;;5060880;28;20439;-59
2021/11/30 10:35:22;;;;;;;1.40;0.73;;;5.40;1.00;;;;;;5060653;28;20973;-56
2021/11/30 10:37:48;;;;;;;2.20;0.67;;;5.50;1.00;;;;;;5055861;28;20488;-56
2021/11/30 10:40:22;;;;;;;1.47;0.80;;;5.50;1.00;;;;;;5054858;28;20437;-57
2021/11/30 10:42:52;;;;;;;0.77;0.70;;;5.50;1.00;;;;;;5053140;28;20442;-57
2021/11/30 10:45:35;;;;;;;2.10;0.80;;;5.40;1.00;;;;;;5068915;28;20513;-56
2021/11/30 10:48:05;;;;;;;1.03;0.50;;;5.50;1.00;;;;;;5061527;28;20972;-56
2021/11/30 10:50:37;;;;;;;1.00;0.70;;;5.50;1.00;;;;;;5062951;28;20450;-56
2021/11/30 10:53:19;;;;;;;0.50;0.50;;;5.60;1.00;;;;;;5063235;28;20744;-56
2021/11/30 10:55:49;;;;;;;0.63;0.63;;;5.40;1.00;;;;;;5057484;28;20442;-57
2021/11/30 10:58:17;;;;;;;0.80;0.80;;;5.30;1.00;;;;;;5056902;28;20474;-55
2021/11/30 11:00:44;;;;;;;0.60;0.57;;;5.30;1.00;;;;;;5058430;28;20454;-56
2021/11/30 11:03:17;;;;;;;0.60;0.57;;;5.40;1.00;;;;;;5067800;28;20434;-57
2021/11/30 11:08:43;;;;;;;0.60;0.60;;;5.60;1.00;;;;;;5053482;28;20481;-57
2021/11/30 11:11:10;;;;;;;0.50;0.40;;;5.70;1.00;;;;;;5068639;28;20450;-57
2021/11/30 11:13:38;;;;;;;0.87;0.30;;;5.70;1.00;;;;;;5052801;28;20439;-58
2021/11/30 11:16:06;;;;;;;1.50;0.67;;;5.60;1.00;;;;;;5053091;28;20464;-57
2021/11/30 11:18:44;;;;;;;0.50;0.50;;;5.80;1.00;;;;;;5051842;28;20437;-58
2021/11/30 11:21:10;;;;;;;0.60;0.60;;;;;;;;;;5064511;28;20984;-58
2021/11/30 11:23:38;;;;;;;0.80;0.50;;;5.90;1.00;;;;;;5066664;28;20450;-57
2021/11/30 11:26:31;;;;;;;1.03;0.60;;;6.00;1.00;;;;;;5063951;28;20454;-58
2021/11/30 11:28:59;;;;;;;0.60;0.60;;;5.90;1.00;;;;;;5072711;28;20434;-58
2021/11/30 11:31:27;;;;;;;0.87;0.40;;;6.00;1.00;;;;;;5070831;28;20439;-57
2021/11/30 11:33:55;;;;;;;0.40;0.40;;;6.00;1.00;;;;;;5064208;28;20446;-58
2021/11/30 11:36:21;;;;;;;2.70;0.47;;;;;;;;;;5072674;28;20476;-58
2021/11/30 11:38:47;;;;;;;0.97;0.70;;;6.00;1.00;;;;;;5069695;28;20430;-57
2021/11/30 11:41:13;;;;;;;1.37;0.70;;;6.00;1.00;;;;;;5051400;28;20485;-57
2021/11/30 11:43:40;;;;;;;0.67;0.67;;;6.00;1.00;;;;;;5060890;28;20445;-56
2021/11/30 11:46:11;;;;;;;0.67;0.67;;;6.00;1.00;;;;;;5063032;28;20435;-59
2021/11/30 11:48:38;;;;;;;1.63;0.60;;;;;;;;;;5070984;28;20437;-56
2021/11/30 11:51:04;;;;;;;1.30;0.43;;;6.20;1.00;;;;;;5052565;28;20447;-58
2021/11/30 11:53:53;;;;;;;0.40;0.40;;;5.90;1.00;;;;;;5053422;28;20442;-58
2021/11/30 11:56:27;;;;;;;1.53;0.80;;;6.00;1.00;;;;;;5061022;28;20442;-58
2021/11/30 11:59:09;;;;;;;0.53;0.53;;;5.90;1.00;;;;;;5064394;28;20788;-58
2021/11/30 12:01:37;;;;;;;0.90;0.50;;;5.80;1.00;;;;;;5064841;28;20462;-57
2021/11/30 12:04:15;;;;;;;0.93;0.50;;;5.80;1.00;;;;;;5055593;28;20435;-59
2021/11/30 12:07:01;;;;;;;0.53;0.50;;;5.80;1.00;;;;;;5065115;28;20442;-59
2021/11/30 12:09:32;;;;;;;0.87;0.60;;;5.80;1.00;;;;;;5052331;28;20438;-57
2021/11/30 12:11:59;;;;;;;1.10;0.60;;;5.90;1.00;;;;;;5054275;28;20447;-57
2021/11/30 12:14:37;;;;;;;0.87;0.60;;;5.80;1.00;;;;;;5066136;28;20818;-59
2021/11/30 12:17:19;;;;;;;0.50;0.50;;;5.90;1.00;;;;;;5067353;28;20467;-56
2021/11/30 12:19:45;;;;;;;3.10;0.77;;;;;;;;;;5063099;28;20545;-58
2021/11/30 12:22:33;;;;;;;1.27;0.50;;;5.70;1.00;;;;;;5055453;28;20934;-58
2021/11/30 12:24:59;;;;;;;1.00;0.70;;;5.60;1.00;;;;;;5053340;28;20466;-57
2021/11/30 12:27:31;;;;;;;0.87;0.60;;;5.50;1.00;;;;;;5071508;28;20533;-58
2021/11/30 12:29:57;;;;;;;1.10;1.07;;;5.60;1.00;;;;;;5064899;28;20474;-58
2021/11/30 12:32:28;;;;;;;0.60;0.60;;;5.70;1.00;;;;;;5051113;28;20481;-58
2021/11/30 12:35:01;;;;;;;0.43;0.43;;;5.60;1.00;;;;;;5056373;28;20190;-57
2021/11/30 12:37:28;;;;;;;1.17;0.80;;;;;;;;;;5057968;28;20515;-59
2021/11/30 12:40:13;;;;;;;0.93;0.73;;;5.50;1.00;;;;;;5052019;28;20442;-59
2021/11/30 12:42:42;;;;;;;0.93;0.63;;;;;;;;;;5051749;28;20466;-56
2021/11/30 12:45:10;;;;;;;1.27;0.80;;;5.50;1.00;;;;;;5066050;28;20445;-57
2021/11/30 12:47:37;;;;;;;0.60;0.60;;;;;;;;;;5065184;28;20451;-58
2021/11/30 12:50:24;;;;;;;0.70;0.63;;;5.60;1.00;;;;;;5057042;28;21244;-59
2021/11/30 12:53:04;;;;;;;0.70;0.70;;;5.50;1.00;;;;;;5063947;28;20435;-59
2021/11/30 12:55:47;;;;;;;1.00;0.50;;;5.50;1.00;;;;;;5049935;28;20450;-59
2021/11/30 12:58:39;;;;;;;0.50;0.50;;;5.60;1.00;;;;;;5065867;28;20519;-57
2021/11/30 13:01:11;;;;;;;0.67;0.67;;;5.50;1.00;;;;;;5071442;28;20426;-57
2021/11/30 13:03:36;;;;;;;0.50;0.50;;;5.60;1.00;;;;;;5060029;28;20435;-59
2021/11/30 13:06:02;;;;;;;0.40;0.30;;;5.50;1.00;;;;;;5062098;28;20462;-57
2021/11/30 13:08:28;;;;;;;0.53;0.30;;;5.40;1.00;;;;;;5064003;28;20654;-58
2021/11/30 13:10:55;;;;;;;0.50;0.50;;;;;;;;;;5063512;28;20195;-59
2021/11/30 13:13:27;;;;;;;1.50;0.50;;;5.50;1.00;;;;;;5054282;28;20267;-57
2021/11/30 13:16:00;;;;;;;0.73;0.73;;;5.50;1.00;;;;;;5056949;28;20441;-58
2021/11/30 13:18:32;;;;;;;0.80;0.70;;;5.50;1.00;;;;;;5068796;28;20456;-57
2021/11/30 13:20:58;;;;;;;0.60;0.60;;;;;;;;;;5064316;28;20493;-57
2021/11/30 13:23:26;;;;;;;0.50;0.43;;;5.50;1.00;;;;;;5061179;28;20429;-58
2021/11/30 13:25:52;;;;;;;0.80;0.80;;;5.40;1.00;;;;;;5055129;28;20436;-57
2021/11/30 13:28:21;;;;;;;0.80;0.80;;;5.50;1.00;;;;;;5058620;28;20453;-58
2021/11/30 13:30:51;;;;;;;1.33;0.63;;;5.40;1.00;;;;;;5049195;28;20455;-58
2021/11/30 13:33:27;;;;;;;0.63;0.63;;;5.50;1.00;;;;;;5059008;28;20447;-57
2021/11/30 13:36:03;;;;;;;0.50;0.50;;;5.60;1.00;;;;;;5050437;28;20418;-58